^^
Datos históricos de la estación: Murcia-Puente Tocinos
Diario Informe para Diciembre 25, 2019 Unidades:  Ambas    Ingés   Métrico
Diario Semanal Mensual Anual
  Máxima: Mínima: Promedio:
Temperatura: 70.3 °F /  21.3 °C 46 °F /  7.8 °C 55.4 °F /  13 °C
Punto de rocio: 46.9 °F /  8.3 °C 41.2 °F /  5.1 °C 44.2 °F /  6.8 °C
Humedad: 83% 41% 68%
Velocidad viento: 5.9mph /  9.5km/h - 3.9mph /  6.2km/h
Racha viento: 10mph /  16.1km/h - -
Viento- - Sur
Presión: 30.3 in /  1025.3 hPa 30.2 in /  1021.6 hPa -
Precipitación: 0 in /  0.0 mm    
 
 
Tabla de datos para Diciembre 25, 2019
Hora Temperatura Punto de rocio Presión Viento Velocidad viento Racha viento Humedad Intensidad lluvia(por hora) Nubes
00:04 53.8 °F /  12.1 °C 45.7 °F /  7.6 °C 30.3in /  1025.3hPa Sur 4.1mph /  6.6km/h 6.2mph /  10km/h 74% 0in /  0.0mm
00:09 53.8 °F /  12.1 °C 45.7 °F /  7.6 °C 30.3in /  1025.3hPa Sur 4mph /  6.5km/h 6.9mph /  11.1km/h 74% 0in /  0.0mm
00:14 53.8 °F /  12.1 °C 45.7 °F /  7.6 °C 30.3in /  1025.3hPa Sur 4.4mph /  7.1km/h 7mph /  11.3km/h 74% 0in /  0.0mm
00:19 53.6 °F /  12 °C 45.5 °F /  7.5 °C 30.3in /  1025.3hPa Sur 4.7mph /  7.6km/h 7.4mph /  11.9km/h 74% 0in /  0.0mm
00:24 53.4 °F /  11.9 °C 45.3 °F /  7.4 °C 30.3in /  1025.3hPa Sur 4.7mph /  7.6km/h 7mph /  11.3km/h 74% 0in /  0.0mm
00:29 53.2 °F /  11.8 °C 45.1 °F /  7.3 °C 30.3in /  1025.1hPa Sur 4.7mph /  7.6km/h 7mph /  11.3km/h 74.1% 0in /  0.0mm
00:34 53.1 °F /  11.7 °C 45.3 °F /  7.4 °C 30.3in /  1025.1hPa Sur 4.7mph /  7.6km/h 7mph /  11.3km/h 75% 0in /  0.0mm
00:39 52.9 °F /  11.6 °C 45.1 °F /  7.3 °C 30.3in /  1025.1hPa Sur 4.7mph /  7.6km/h 6.9mph /  11.1km/h 75% 0in /  0.0mm
00:44 52.9 °F /  11.6 °C 45.1 °F /  7.3 °C 30.3in /  1025.1hPa Sur 4.5mph /  7.2km/h 7mph /  11.3km/h 75% 0in /  0.0mm
00:49 52.9 °F /  11.6 °C 45.5 °F /  7.5 °C 30.3in /  1025.1hPa SSO 4.3mph /  6.9km/h 7.4mph /  11.9km/h 76% 0in /  0.0mm
00:54 53.1 °F /  11.7 °C 45.7 °F /  7.6 °C 30.3in /  1025.1hPa SSO 4.8mph /  7.8km/h 7mph /  11.3km/h 76% 0in /  0.0mm
00:59 53.1 °F /  11.7 °C 45.5 °F /  7.5 °C 30.3in /  1025.1hPa SSO 5.2mph /  8.4km/h 7mph /  11.3km/h 75.6% 0in /  0.0mm
01:04 53.1 °F /  11.7 °C 45.3 °F /  7.4 °C 30.3in /  1025.1hPa Sur 4.4mph /  7.1km/h 6mph /  9.7km/h 75.1% 0in /  0.0mm
01:09 53.1 °F /  11.7 °C 45.3 °F /  7.4 °C 30.3in /  1025.1hPa Sur 4mph /  6.5km/h 6.2mph /  10km/h 75% 0in /  0.0mm
01:14 52.7 °F /  11.5 °C 45.3 °F /  7.4 °C 30.3in /  1025.0hPa Sur 4.4mph /  7.1km/h 6.2mph /  10km/h 75.9% 0in /  0.0mm
01:19 52.5 °F /  11.4 °C 45.1 °F /  7.3 °C 30.3in /  1025.0hPa Sur 4.7mph /  7.6km/h 6.9mph /  11.1km/h 76% 0in /  0.0mm
01:24 52.5 °F /  11.4 °C 45.3 °F /  7.4 °C 30.3in /  1025.0hPa Sur 4.7mph /  7.6km/h 7.4mph /  11.9km/h 76.6% 0in /  0.0mm
01:29 52.5 °F /  11.4 °C 45.3 °F /  7.4 °C 30.3in /  1024.9hPa Sur 4.7mph /  7.6km/h 7mph /  11.3km/h 76.2% 0in /  0.0mm
01:34 52.3 °F /  11.3 °C 45.1 °F /  7.3 °C 30.3in /  1024.9hPa SSO 4.3mph /  6.9km/h 5.2mph /  8.4km/h 76.6% 0in /  0.0mm
01:39 52.3 °F /  11.3 °C 45.3 °F /  7.4 °C 30.3in /  1024.9hPa SSO 4mph /  6.5km/h 5.2mph /  8.4km/h 77% 0in /  0.0mm
01:44 52.5 °F /  11.4 °C 45.5 °F /  7.5 °C 30.3in /  1024.7hPa SO 3.8mph /  6.1km/h 5.9mph /  9.5km/h 77% 0in /  0.0mm
01:49 52.5 °F /  11.4 °C 45.5 °F /  7.5 °C 30.3in /  1024.7hPa Sur 3.6mph /  5.8km/h 6mph /  9.7km/h 76.7% 0in /  0.0mm
01:54 52.3 °F /  11.3 °C 44.8 °F /  7.1 °C 30.3in /  1024.7hPa SSE 3.6mph /  5.8km/h 5.2mph /  8.4km/h 75.3% 0in /  0.0mm
01:59 52 °F /  11.1 °C 44.6 °F /  7 °C 30.3in /  1024.7hPa SSE 3.6mph /  5.8km/h 5mph /  8km/h 75.7% 0in /  0.0mm
02:04 51.6 °F /  10.9 °C 44.2 °F /  6.8 °C 30.3in /  1024.7hPa SSE 3.3mph /  5.3km/h 5mph /  8km/h 76% 0in /  0.0mm
02:09 51.4 °F /  10.8 °C 44.4 °F /  6.9 °C 30.3in /  1024.7hPa Sur 3.1mph /  5km/h 5mph /  8km/h 76.7% 0in /  0.0mm
02:14 51.3 °F /  10.7 °C 44.1 °F /  6.7 °C 30.3in /  1024.7hPa SSE 3.1mph /  5km/h 5.8mph /  9.3km/h 76.3% 0in /  0.0mm
02:19 50.9 °F /  10.5 °C 43.9 °F /  6.6 °C 30.3in /  1024.7hPa SSE 3.1mph /  5km/h 6mph /  9.7km/h 76.9% 0in /  0.0mm
02:24 50.5 °F /  10.3 °C 43.7 °F /  6.5 °C 30.3in /  1024.7hPa SSE 3.4mph /  5.5km/h 6mph /  9.7km/h 77% 0in /  0.0mm
02:29 50.5 °F /  10.3 °C 43.5 °F /  6.4 °C 30.3in /  1024.6hPa SSE 3.6mph /  5.8km/h 5.9mph /  9.5km/h 77% 0in /  0.0mm
02:34 50.4 °F /  10.2 °C 43.3 °F /  6.3 °C 30.3in /  1024.6hPa SSE 3.6mph /  5.8km/h 6.2mph /  10km/h 77% 0in /  0.0mm
02:39 50 °F /  10 °C 43.3 °F /  6.3 °C 30.3in /  1024.6hPa Sur 3.6mph /  5.8km/h 6mph /  9.7km/h 77.5% 0in /  0.0mm
02:44 49.8 °F /  9.9 °C 43.2 °F /  6.2 °C 30.3in /  1024.5hPa SSE 4mph /  6.5km/h 6.2mph /  10km/h 78% 0in /  0.0mm
02:49 49.5 °F /  9.7 °C 43 °F /  6.1 °C 30.3in /  1024.5hPa SSE 4.3mph /  6.9km/h 6mph /  9.7km/h 78% 0in /  0.0mm
02:54 49.3 °F /  9.6 °C 42.8 °F /  6 °C 30.3in /  1024.6hPa SSE 4.3mph /  6.9km/h 6.2mph /  10km/h 78.3% 0in /  0.0mm
02:59 49.1 °F /  9.5 °C 43 °F /  6.1 °C 30.3in /  1024.6hPa SSE 4.3mph /  6.9km/h 6mph /  9.7km/h 79% 0in /  0.0mm
03:04 48.9 °F /  9.4 °C 42.8 °F /  6 °C 30.3in /  1024.6hPa SSE 4.3mph /  6.9km/h 6.9mph /  11.1km/h 79% 0in /  0.0mm
03:09 48.9 °F /  9.4 °C 42.6 °F /  5.9 °C 30.3in /  1024.6hPa SSE 4.3mph /  6.9km/h 7.4mph /  11.9km/h 79% 0in /  0.0mm
03:14 48.7 °F /  9.3 °C 42.8 °F /  6 °C 30.3in /  1024.6hPa SSE 4.8mph /  7.8km/h 7mph /  11.3km/h 80% 0in /  0.0mm
03:19 48.7 °F /  9.3 °C 42.8 °F /  6 °C 30.3in /  1024.6hPa SSE 5.2mph /  8.4km/h 8.1mph /  13km/h 80% 0in /  0.0mm
03:24 48.6 °F /  9.2 °C 42.6 °F /  5.9 °C 30.3in /  1024.6hPa SSE 5.2mph /  8.4km/h 8mph /  12.9km/h 80% 0in /  0.0mm
03:29 48.6 °F /  9.2 °C 42.6 °F /  5.9 °C 30.3in /  1024.5hPa SSE 5.2mph /  8.4km/h 7.4mph /  11.9km/h 80.4% 0in /  0.0mm
03:34 48.4 °F /  9.1 °C 42.8 °F /  6 °C 30.3in /  1024.5hPa Sur 4.9mph /  7.9km/h 7.4mph /  11.9km/h 81% 0in /  0.0mm
03:39 48.4 °F /  9.1 °C 42.8 °F /  6 °C 30.3in /  1024.5hPa SSE 4.7mph /  7.6km/h 7mph /  11.3km/h 81% 0in /  0.0mm
03:44 48.4 °F /  9.1 °C 42.8 °F /  6 °C 30.3in /  1024.4hPa Sur 5mph /  8.1km/h 8.1mph /  13km/h 81% 0in /  0.0mm
03:49 48.6 °F /  9.2 °C 43 °F /  6.1 °C 30.3in /  1024.4hPa Sur 5.2mph /  8.4km/h 8.1mph /  13km/h 81% 0in /  0.0mm
03:54 48.6 °F /  9.2 °C 43 °F /  6.1 °C 30.3in /  1024.4hPa Sur 5.2mph /  8.4km/h 8mph /  12.9km/h 81% 0in /  0.0mm
03:59 48.7 °F /  9.3 °C 43.2 °F /  6.2 °C 30.3in /  1024.4hPa Sur 5.2mph /  8.4km/h 7mph /  11.3km/h 81% 0in /  0.0mm
04:04 48.7 °F /  9.3 °C 43.2 °F /  6.2 °C 30.3in /  1024.4hPa Sur 4.6mph /  7.4km/h 7mph /  11.3km/h 81% 0in /  0.0mm
04:09 48.7 °F /  9.3 °C 43.3 °F /  6.3 °C 30.3in /  1024.4hPa Sur 4.3mph /  6.9km/h 6mph /  9.7km/h 81% 0in /  0.0mm
04:14 48.9 °F /  9.4 °C 43.3 °F /  6.3 °C 30.3in /  1024.4hPa Sur 4.1mph /  6.6km/h 6.2mph /  10km/h 81% 0in /  0.0mm
04:19 48.9 °F /  9.4 °C 43.3 °F /  6.3 °C 30.3in /  1024.4hPa Sur 4mph /  6.5km/h 7.4mph /  11.9km/h 81% 0in /  0.0mm
04:24 49.1 °F /  9.5 °C 43.5 °F /  6.4 °C 30.3in /  1024.4hPa Sur 4.4mph /  7.1km/h 7mph /  11.3km/h 81% 0in /  0.0mm
04:29 49.3 °F /  9.6 °C 43.7 °F /  6.5 °C 30.3in /  1024.3hPa SSO 4.7mph /  7.6km/h 7mph /  11.3km/h 80.9% 0in /  0.0mm
04:34 49.5 °F /  9.7 °C 43.5 °F /  6.4 °C 30.3in /  1024.3hPa SSO 4.7mph /  7.6km/h 7mph /  11.3km/h 80% 0in /  0.0mm
04:39 49.6 °F /  9.8 °C 43.7 °F /  6.5 °C 30.3in /  1024.3hPa SSO 4.7mph /  7.6km/h 7mph /  11.3km/h 80% 0in /  0.0mm
04:44 49.6 °F /  9.8 °C 43.7 °F /  6.5 °C 30.3in /  1024.3hPa SSO 4.3mph /  6.9km/h 6mph /  9.7km/h 80% 0in /  0.0mm
04:49 49.6 °F /  9.8 °C 43.7 °F /  6.5 °C 30.3in /  1024.3hPa SSO 4mph /  6.5km/h 6.4mph /  10.3km/h 80% 0in /  0.0mm
04:54 49.6 °F /  9.8 °C 43.7 °F /  6.5 °C 30.3in /  1024.3hPa Sur 4.2mph /  6.7km/h 6mph /  9.7km/h 80% 0in /  0.0mm
04:59 49.6 °F /  9.8 °C 43.7 °F /  6.5 °C 30.2in /  1024.1hPa Sur 4.3mph /  6.9km/h 6mph /  9.7km/h 80% 0in /  0.0mm
05:04 49.5 °F /  9.7 °C 43.5 °F /  6.4 °C 30.2in /  1024.1hPa Sur 4.3mph /  6.9km/h 6.9mph /  11.1km/h 80% 0in /  0.0mm
05:09 49.5 °F /  9.7 °C 43.5 °F /  6.4 °C 30.2in /  1024.1hPa Sur 4.3mph /  6.9km/h 7mph /  11.3km/h 80% 0in /  0.0mm
05:14 49.5 °F /  9.7 °C 43.5 °F /  6.4 °C 30.2in /  1024.0hPa SSO 4.5mph /  7.3km/h 7mph /  11.3km/h 80% 0in /  0.0mm
05:19 49.3 °F /  9.6 °C 43.3 °F /  6.3 °C 30.2in /  1024.0hPa Sur 4.7mph /  7.6km/h 7mph /  11.3km/h 80% 0in /  0.0mm
05:24 49.3 °F /  9.6 °C 43.3 °F /  6.3 °C 30.2in /  1024.1hPa Sur 4.3mph /  6.9km/h 6mph /  9.7km/h 80% 0in /  0.0mm
05:29 48.9 °F /  9.4 °C 43.2 °F /  6.2 °C 30.2in /  1024.1hPa Sur 4mph /  6.5km/h 6mph /  9.7km/h 80.3% 0in /  0.0mm
05:34 48.7 °F /  9.3 °C 43.2 °F /  6.2 °C 30.2in /  1024.1hPa Sur 4mph /  6.5km/h 6mph /  9.7km/h 81% 0in /  0.0mm
05:39 48.6 °F /  9.2 °C 43 °F /  6.1 °C 30.2in /  1024.1hPa SSO 4mph /  6.5km/h 6.9mph /  11.1km/h 81% 0in /  0.0mm
05:44 48.6 °F /  9.2 °C 43 °F /  6.1 °C 30.2in /  1024.0hPa SSO 4mph /  6.5km/h 7mph /  11.3km/h 81% 0in /  0.0mm
05:49 48.6 °F /  9.2 °C 43 °F /  6.1 °C 30.2in /  1024.0hPa SSO 4mph /  6.5km/h 7mph /  11.3km/h 81% 0in /  0.0mm
05:54 48.6 °F /  9.2 °C 43 °F /  6.1 °C 30.2in /  1024.0hPa SSO 4.2mph /  6.8km/h 8.1mph /  13km/h 81% 0in /  0.0mm
05:59 48.4 °F /  9.1 °C 42.8 °F /  6 °C 30.2in /  1024.0hPa Sur 4.3mph /  6.9km/h 8mph /  12.9km/h 81% 0in /  0.0mm
06:04 48.4 °F /  9.1 °C 42.8 °F /  6 °C 30.2in /  1024.0hPa Sur 4.6mph /  7.4km/h 8.1mph /  13km/h 81% 0in /  0.0mm
06:09 48 °F /  8.9 °C 42.4 °F /  5.8 °C 30.2in /  1024.0hPa Sur 4.7mph /  7.6km/h 8mph /  12.9km/h 81% 0in /  0.0mm
06:14 47.8 °F /  8.8 °C 42.3 °F /  5.7 °C 30.2in /  1024.0hPa SSE 5mph /  8.1km/h 7mph /  11.3km/h 81% 0in /  0.0mm
06:19 47.5 °F /  8.6 °C 41.9 °F /  5.5 °C 30.2in /  1024.0hPa SSE 5.2mph /  8.4km/h 7.4mph /  11.9km/h 81% 0in /  0.0mm
06:24 47.1 °F /  8.4 °C 41.7 °F /  5.4 °C 30.2in /  1024.0hPa Sur 5.2mph /  8.4km/h 8.1mph /  13km/h 81.7% 0in /  0.0mm
06:29 46.9 °F /  8.3 °C 41.7 °F /  5.4 °C 30.2in /  1024.0hPa Sur 5.2mph /  8.4km/h 8.1mph /  13km/h 82% 0in /  0.0mm
06:34 46.8 °F /  8.2 °C 41.5 °F /  5.3 °C 30.2in /  1024.0hPa Sur 5.3mph /  8.6km/h 8.1mph /  13km/h 82% 0in /  0.0mm
06:39 46.9 °F /  8.3 °C 41.9 °F /  5.5 °C 30.2in /  1024.0hPa Sur 5.4mph /  8.7km/h 8.1mph /  13km/h 82.8% 0in /  0.0mm
06:44 46.9 °F /  8.3 °C 42.1 °F /  5.6 °C 30.2in /  1024.0hPa Sur 5.7mph /  9.2km/h 9.2mph /  14.8km/h 83% 0in /  0.0mm
06:49 47.3 °F /  8.5 °C 42.3 °F /  5.7 °C 30.2in /  1024.0hPa Sur 5.9mph /  9.5km/h 9.2mph /  14.8km/h 82.7% 0in /  0.0mm
06:54 47.5 °F /  8.6 °C 42.3 °F /  5.7 °C 30.2in /  1024.0hPa SSO 5.6mph /  9km/h 9.2mph /  14.8km/h 82% 0in /  0.0mm
06:59 47.7 °F /  8.7 °C 42.4 °F /  5.8 °C 30.2in /  1024.0hPa SSO 5.4mph /  8.7km/h 9mph /  14.5km/h 82% 0in /  0.0mm
07:04 47.8 °F /  8.8 °C 42.6 °F /  5.9 °C 30.2in /  1024.0hPa SSO 4.7mph /  7.5km/h 7mph /  11.3km/h 82% 0in /  0.0mm
07:09 47.8 °F /  8.8 °C 42.4 °F /  5.8 °C 30.2in /  1024.0hPa SSO 4.3mph /  6.9km/h 7mph /  11.3km/h 81.2% 0in /  0.0mm
07:14 47.8 °F /  8.8 °C 42.3 °F /  5.7 °C 30.2in /  1024.0hPa SSO 4.1mph /  6.6km/h 6.4mph /  10.3km/h 81% 0in /  0.0mm
07:19 48 °F /  8.9 °C 42.4 °F /  5.8 °C 30.2in /  1024.0hPa SSO 4mph /  6.5km/h 7mph /  11.3km/h 81% 0in /  0.0mm
07:24 48 °F /  8.9 °C 42.6 °F /  5.9 °C 30.2in /  1024.1hPa SSO 4.2mph /  6.8km/h 6.9mph /  11.1km/h 81% 0in /  0.0mm
07:29 48.4 °F /  9.1 °C 42.6 °F /  5.9 °C 30.2in /  1024.1hPa SSO 4.3mph /  6.9km/h 7mph /  11.3km/h 80.6% 0in /  0.0mm
07:34 48 °F /  8.9 °C 42.3 °F /  5.7 °C 30.2in /  1024.1hPa SSE 4.3mph /  6.9km/h 6.2mph /  10km/h 80% 0in /  0.0mm
07:39 47.7 °F /  8.7 °C 41.7 °F /  5.4 °C 30.2in /  1024.1hPa SSE 4.3mph /  6.9km/h 6mph /  9.7km/h 80% 0in /  0.0mm
07:44 46.9 °F /  8.3 °C 41.4 °F /  5.2 °C 30.2in /  1024.1hPa SSE 4.3mph /  6.9km/h 6.2mph /  10km/h 80.8% 0in /  0.0mm
07:49 46.4 °F /  8 °C 41.2 °F /  5.1 °C 30.2in /  1024.1hPa SSE 4.3mph /  6.9km/h 6mph /  9.7km/h 81.6% 0in /  0.0mm
07:54 46.2 °F /  7.9 °C 41.2 °F /  5.1 °C 30.2in /  1024.2hPa SSE 3.9mph /  6.3km/h 6mph /  9.7km/h 82.5% 0in /  0.0mm
07:59 46 °F /  7.8 °C 41.2 °F /  5.1 °C 30.2in /  1024.2hPa SSE 3.6mph /  5.8km/h 5mph /  8km/h 83% 0in /  0.0mm
08:04 46 °F /  7.8 °C 41.2 °F /  5.1 °C 30.2in /  1024.2hPa SSE 3.3mph /  5.3km/h 5.2mph /  8.4km/h 83% 0in /  0.0mm
08:09 46 °F /  7.8 °C 41.2 °F /  5.1 °C 30.3in /  1024.3hPa SSE 3.1mph /  5km/h 6.2mph /  10km/h 83% 0in /  0.0mm
08:14 46 °F /  7.8 °C 41.2 °F /  5.1 °C 30.3in /  1024.3hPa Sur 3.7mph /  5.9km/h 6.4mph /  10.3km/h 83% 0in /  0.0mm
08:19 46 °F /  7.8 °C 41.2 °F /  5.1 °C 30.3in /  1024.3hPa Sur 4mph /  6.5km/h 7mph /  11.3km/h 83% 0in /  0.0mm
08:24 46 °F /  7.8 °C 41.2 °F /  5.1 °C 30.3in /  1024.4hPa Sur 4.4mph /  7.1km/h 7mph /  11.3km/h 83% 0in /  0.0mm
08:29 46 °F /  7.8 °C 41.2 °F /  5.1 °C 30.3in /  1024.4hPa Sur 4.7mph /  7.6km/h 6mph /  9.7km/h 83% 0in /  0.0mm
08:34 46.2 °F /  7.9 °C 41.4 °F /  5.2 °C 30.3in /  1024.4hPa SSE 4.3mph /  6.9km/h 6.9mph /  11.1km/h 83% 0in /  0.0mm
08:39 46.2 °F /  7.9 °C 41.4 °F /  5.2 °C 30.3in /  1024.6hPa SSE 4mph /  6.5km/h 7mph /  11.3km/h 83% 0in /  0.0mm
08:44 46.2 °F /  7.9 °C 41.4 °F /  5.2 °C 30.3in /  1024.6hPa Sur 4.7mph /  7.6km/h 8.1mph /  13km/h 83% 0in /  0.0mm
08:49 46.2 °F /  7.9 °C 41.4 °F /  5.2 °C 30.3in /  1024.6hPa Sur 5.2mph /  8.4km/h 8.1mph /  13km/h 83% 0in /  0.0mm
08:54 46.6 °F /  8.1 °C 41.5 °F /  5.3 °C 30.3in /  1024.7hPa Sur 5.3mph /  8.6km/h 8.1mph /  13km/h 83% 0in /  0.0mm
08:59 46.8 °F /  8.2 °C 41.7 °F /  5.4 °C 30.3in /  1024.7hPa SSE 5.4mph /  8.7km/h 8.1mph /  13km/h 82.8% 0in /  0.0mm
09:04 46.8 °F /  8.2 °C 41.7 °F /  5.4 °C 30.3in /  1024.7hPa Sur 5.3mph /  8.5km/h 8mph /  12.9km/h 82% 0in /  0.0mm
09:09 46.9 °F /  8.3 °C 41.7 °F /  5.4 °C 30.3in /  1024.7hPa Sur 5.2mph /  8.4km/h 8.1mph /  13km/h 82% 0in /  0.0mm
09:14 47.1 °F /  8.4 °C 41.9 °F /  5.5 °C 30.3in /  1024.7hPa Sur 5.2mph /  8.4km/h 8mph /  12.9km/h 82% 0in /  0.0mm
09:19 47.3 °F /  8.5 °C 41.9 °F /  5.5 °C 30.3in /  1024.7hPa Sur 5.2mph /  8.4km/h 8.5mph /  13.7km/h 81% 0in /  0.0mm
09:24 47.7 °F /  8.7 °C 41.7 °F /  5.4 °C 30.3in /  1024.8hPa Sur 5.3mph /  8.6km/h 9mph /  14.5km/h 80.3% 0in /  0.0mm
09:29 47.8 °F /  8.8 °C 41.9 °F /  5.5 °C 30.3in /  1024.8hPa SSO 5.4mph /  8.7km/h 7mph /  11.3km/h 80% 0in /  0.0mm
09:34 48 °F /  8.9 °C 41.9 °F /  5.5 °C 30.3in /  1024.8hPa SSO 4.5mph /  7.3km/h 6mph /  9.7km/h 79.1% 0in /  0.0mm
09:39 48.4 °F /  9.1 °C 41.9 °F /  5.5 °C 30.3in /  1024.9hPa SSO 4mph /  6.5km/h 7.4mph /  11.9km/h 78.2% 0in /  0.0mm
09:44 48.6 °F /  9.2 °C 41.7 °F /  5.4 °C 30.3in /  1024.9hPa SSO 4mph /  6.5km/h 7mph /  11.3km/h 77.2% 0in /  0.0mm
09:49 48.7 °F /  9.3 °C 41.9 °F /  5.5 °C 30.3in /  1024.9hPa Sur 4mph /  6.5km/h 6mph /  9.7km/h 77% 0in /  0.0mm
09:54 49.3 °F /  9.6 °C 42.1 °F /  5.6 °C 30.3in /  1025.0hPa SSE 4mph /  6.5km/h 6mph /  9.7km/h 76.5% 0in /  0.0mm
09:59 49.6 °F /  9.8 °C 42.3 °F /  5.7 °C 30.3in /  1025.0hPa SSE 4mph /  6.5km/h 6mph /  9.7km/h 76% 0in /  0.0mm
10:04 50 °F /  10 °C 42.4 °F /  5.8 °C 30.3in /  1025.0hPa Sur 4mph /  6.5km/h 6.2mph /  10km/h 75.3% 0in /  0.0mm
10:09 50.2 °F /  10.1 °C 42.6 °F /  5.9 °C 30.3in /  1025.0hPa Sur 4mph /  6.5km/h 6mph /  9.7km/h 75% 0in /  0.0mm
10:14 50.4 °F /  10.2 °C 42.6 °F /  5.9 °C 30.3in /  1025.0hPa SSE 4mph /  6.5km/h 6mph /  9.7km/h 75% 0in /  0.0mm
10:19 50.5 °F /  10.3 °C 42.8 °F /  6 °C 30.3in /  1025.0hPa SSE 4mph /  6.5km/h 6mph /  9.7km/h 74.3% 0in /  0.0mm
10:24 50.9 °F /  10.5 °C 42.8 °F /  6 °C 30.3in /  1025.1hPa Sur 4mph /  6.5km/h 8.5mph /  13.7km/h 73.7% 0in /  0.0mm
10:29 51.1 °F /  10.6 °C 42.8 °F /  6 °C 30.3in /  1025.1hPa Sur 4mph /  6.5km/h 9mph /  14.5km/h 73% 0in /  0.0mm
10:34 51.4 °F /  10.8 °C 43.2 °F /  6.2 °C 30.3in /  1025.1hPa Sur 4.4mph /  7.1km/h 7mph /  11.3km/h 73% 0in /  0.0mm
10:39 51.8 °F /  11 °C 43.2 °F /  6.2 °C 30.3in /  1025.2hPa Sur 4.7mph /  7.6km/h 8.1mph /  13km/h 72.4% 0in /  0.0mm
10:44 52.2 °F /  11.2 °C 43.3 °F /  6.3 °C 30.3in /  1025.2hPa Sur 4.7mph /  7.6km/h 8.1mph /  13km/h 71.9% 0in /  0.0mm
10:49 52.3 °F /  11.3 °C 43.3 °F /  6.3 °C 30.3in /  1025.2hPa Sur 4.7mph /  7.6km/h 8.1mph /  13km/h 71.3% 0in /  0.0mm
10:54 52.9 °F /  11.6 °C 43.5 °F /  6.4 °C 30.3in /  1025.2hPa Sur 4.7mph /  7.6km/h 7mph /  11.3km/h 70.2% 0in /  0.0mm
10:59 53.2 °F /  11.8 °C 43.5 °F /  6.4 °C 30.3in /  1025.2hPa SSO 4.7mph /  7.6km/h 8.1mph /  13km/h 69.2% 0in /  0.0mm
11:04 53.6 °F /  12 °C 43.5 °F /  6.4 °C 30.3in /  1025.2hPa SSO 5mph /  8.1km/h 8mph /  12.9km/h 68.9% 0in /  0.0mm
11:09 54 °F /  12.2 °C 43.5 °F /  6.4 °C 30.3in /  1025.2hPa SSO 5.2mph /  8.4km/h 7mph /  11.3km/h 68.2% 0in /  0.0mm
11:14 54.1 °F /  12.3 °C 43.7 °F /  6.5 °C 30.3in /  1025.2hPa Sur 5.2mph /  8.4km/h 7.4mph /  11.9km/h 67.6% 0in /  0.0mm
11:19 54.7 °F /  12.6 °C 43.9 °F /  6.6 °C 30.3in /  1025.2hPa Sur 5.2mph /  8.4km/h 8.1mph /  13km/h 66.9% 0in /  0.0mm
11:24 55 °F /  12.8 °C 43.9 °F /  6.6 °C 30.3in /  1025.2hPa Sur 5.2mph /  8.4km/h 8mph /  12.9km/h 66.1% 0in /  0.0mm
11:29 55.2 °F /  12.9 °C 43.9 °F /  6.6 °C 30.3in /  1025.1hPa Sur 5.2mph /  8.4km/h 7mph /  11.3km/h 65.4% 0in /  0.0mm
11:34 55.6 °F /  13.1 °C 43.9 °F /  6.6 °C 30.3in /  1025.1hPa SSO 4.9mph /  7.9km/h 7mph /  11.3km/h 64.8% 0in /  0.0mm
11:39 55.8 °F /  13.2 °C 43.9 °F /  6.6 °C 30.3in /  1025.1hPa Sur 4.7mph /  7.6km/h 7.4mph /  11.9km/h 64.2% 0in /  0.0mm
11:44 56.3 °F /  13.5 °C 43.9 °F /  6.6 °C 30.3in /  1024.9hPa Sur 4.5mph /  7.2km/h 7mph /  11.3km/h 63.3% 0in /  0.0mm
11:49 56.7 °F /  13.7 °C 43.9 °F /  6.6 °C 30.3in /  1024.9hPa SSO 4.3mph /  6.9km/h 6.9mph /  11.1km/h 62.2% 0in /  0.0mm
11:54 56.7 °F /  13.7 °C 43.9 °F /  6.6 °C 30.3in /  1024.9hPa SSO 4.3mph /  6.9km/h 7mph /  11.3km/h 62% 0in /  0.0mm
11:59 56.8 °F /  13.8 °C 43.9 °F /  6.6 °C 30.3in /  1024.9hPa SSO 4.3mph /  6.9km/h 7mph /  11.3km/h 61.7% 0in /  0.0mm
12:04 57 °F /  13.9 °C 43.7 °F /  6.5 °C 30.3in /  1024.9hPa Sur 4.3mph /  6.9km/h 7mph /  11.3km/h 61.1% 0in /  0.0mm
12:09 57.2 °F /  14 °C 43.9 °F /  6.6 °C 30.3in /  1024.9hPa Sur 4.3mph /  6.9km/h 7.4mph /  11.9km/h 61.2% 0in /  0.0mm
12:14 57.6 °F /  14.2 °C 43.9 °F /  6.6 °C 30.3in /  1024.7hPa Sur 4.3mph /  6.9km/h 7mph /  11.3km/h 60.3% 0in /  0.0mm
12:19 57.7 °F /  14.3 °C 44.1 °F /  6.7 °C 30.3in /  1024.7hPa SSO 4.3mph /  6.9km/h 7mph /  11.3km/h 60.2% 0in /  0.0mm
12:24 57.9 °F /  14.4 °C 43.9 °F /  6.6 °C 30.3in /  1024.7hPa SSO 4.3mph /  6.9km/h 7mph /  11.3km/h 59.5% 0in /  0.0mm
12:29 58.3 °F /  14.6 °C 43.9 °F /  6.6 °C 30.3in /  1024.4hPa SSO 4.3mph /  6.9km/h 7mph /  11.3km/h 58.8% 0in /  0.0mm
12:34 58.6 °F /  14.8 °C 43.7 °F /  6.5 °C 30.3in /  1024.4hPa SSO 4.1mph /  6.6km/h 6mph /  9.7km/h 57.6% 0in /  0.0mm
12:39 59 °F /  15 °C 43.5 °F /  6.4 °C 30.3in /  1024.4hPa SSO 4mph /  6.5km/h 6mph /  9.7km/h 56.6% 0in /  0.0mm
12:44 59.4 °F /  15.2 °C 43.3 °F /  6.3 °C 30.2in /  1024.0hPa SSO 3.8mph /  6.1km/h 6mph /  9.7km/h 55.3% 0in /  0.0mm
12:49 59.5 °F /  15.3 °C 43.3 °F /  6.3 °C 30.2in /  1024.0hPa SSO 3.6mph /  5.8km/h 6.2mph /  10km/h 54.7% 0in /  0.0mm
12:54 59.9 °F /  15.5 °C 43.2 °F /  6.2 °C 30.2in /  1024.0hPa SSO 3.9mph /  6.2km/h 6mph /  9.7km/h 54.1% 0in /  0.0mm
12:59 60.3 °F /  15.7 °C 43.3 °F /  6.3 °C 30.2in /  1023.7hPa Sur 4mph /  6.5km/h 6mph /  9.7km/h 53.5% 0in /  0.0mm
13:04 60.6 °F /  15.9 °C 43.2 °F /  6.2 °C 30.2in /  1023.7hPa SSE 3.7mph /  6km/h 6.2mph /  10km/h 52.5% 0in /  0.0mm
13:09 61 °F /  16.1 °C 43.3 °F /  6.3 °C 30.2in /  1023.7hPa Sur 3.6mph /  5.8km/h 6mph /  9.7km/h 52% 0in /  0.0mm
13:14 61.3 °F /  16.3 °C 43.5 °F /  6.4 °C 30.2in /  1023.4hPa Sur 3.9mph /  6.2km/h 6mph /  9.7km/h 52% 0in /  0.0mm
13:19 61.7 °F /  16.5 °C 43.7 °F /  6.5 °C 30.2in /  1023.4hPa OSO 4mph /  6.5km/h 6mph /  9.7km/h 51.4% 0in /  0.0mm
13:24 62.1 °F /  16.7 °C 43.5 °F /  6.4 °C 30.2in /  1023.4hPa OSO 3.8mph /  6.1km/h 6mph /  9.7km/h 51% 0in /  0.0mm
13:29 62.1 °F /  16.7 °C 43.7 °F /  6.5 °C 30.2in /  1023.1hPa SSO 3.6mph /  5.8km/h 6mph /  9.7km/h 51% 0in /  0.0mm
13:34 62.2 °F /  16.8 °C 44.1 °F /  6.7 °C 30.2in /  1023.1hPa SSO 3.3mph /  5.3km/h 6mph /  9.7km/h 51.4% 0in /  0.0mm
13:39 62.4 °F /  16.9 °C 44.1 °F /  6.7 °C 30.2in /  1023.1hPa SSO 3.1mph /  5km/h 6.9mph /  11.1km/h 51.1% 0in /  0.0mm
13:44 63 °F /  17.2 °C 44.2 °F /  6.8 °C 30.2in /  1022.9hPa Sur 3.7mph /  5.9km/h 7mph /  11.3km/h 50.6% 0in /  0.0mm
13:49 63.1 °F /  17.3 °C 44.2 °F /  6.8 °C 30.2in /  1022.9hPa Sur 4mph /  6.5km/h 6mph /  9.7km/h 50.2% 0in /  0.0mm
13:54 63.5 °F /  17.5 °C 44.8 °F /  7.1 °C 30.2in /  1022.9hPa Sur 3.8mph /  6.1km/h 6mph /  9.7km/h 50.3% 0in /  0.0mm
13:59 63.9 °F /  17.7 °C 45 °F /  7.2 °C 30.2in /  1022.7hPa SSO 3.6mph /  5.8km/h 6.9mph /  11.1km/h 50% 0in /  0.0mm
14:04 64 °F /  17.8 °C 45 °F /  7.2 °C 30.2in /  1022.7hPa SSO 3.9mph /  6.2km/h 7mph /  11.3km/h 50% 0in /  0.0mm
14:09 64.2 °F /  17.9 °C 45.1 °F /  7.3 °C 30.2in /  1022.7hPa SSO 4mph /  6.5km/h 7mph /  11.3km/h 50% 0in /  0.0mm
14:14 64.6 °F /  18.1 °C 45.1 °F /  7.3 °C 30.2in /  1022.3hPa Sur 4.2mph /  6.8km/h 7mph /  11.3km/h 49.4% 0in /  0.0mm
14:19 64.8 °F /  18.2 °C 45.1 °F /  7.3 °C 30.2in /  1022.3hPa SSO 4.3mph /  6.9km/h 8.1mph /  13km/h 49% 0in /  0.0mm
14:24 64.9 °F /  18.3 °C 45.3 °F /  7.4 °C 30.2in /  1022.3hPa SSO 4.8mph /  7.8km/h 8.1mph /  13km/h 49% 0in /  0.0mm
14:29 64.9 °F /  18.3 °C 45.3 °F /  7.4 °C 30.2in /  1022.2hPa SSO 5.2mph /  8.4km/h 8.1mph /  13km/h 49.1% 0in /  0.0mm
14:34 65.1 °F /  18.4 °C 45.5 °F /  7.5 °C 30.2in /  1022.2hPa Sur 4.9mph /  7.9km/h 8.1mph /  13km/h 49% 0in /  0.0mm
14:39 65.1 °F /  18.4 °C 45.5 °F /  7.5 °C 30.2in /  1022.2hPa Sur 4.7mph /  7.6km/h 7.6mph /  12.2km/h 49% 0in /  0.0mm
14:44 65.1 °F /  18.4 °C 45.5 °F /  7.5 °C 30.2in /  1021.9hPa SSO 5mph /  8.1km/h 8.1mph /  13km/h 49% 0in /  0.0mm
14:49 65.3 °F /  18.5 °C 45.5 °F /  7.5 °C 30.2in /  1021.9hPa SSO 5.2mph /  8.4km/h 8mph /  12.9km/h 48.9% 0in /  0.0mm
14:54 65.5 °F /  18.6 °C 45.5 °F /  7.5 °C 30.2in /  1021.9hPa SSE 4.9mph /  7.9km/h 7mph /  11.3km/h 48.4% 0in /  0.0mm
14:59 65.8 °F /  18.8 °C 45.5 °F /  7.5 °C 30.2in /  1021.8hPa SSE 4.7mph /  7.6km/h 7mph /  11.3km/h 48.1% 0in /  0.0mm
15:04 66.2 °F /  19 °C 45.9 °F /  7.7 °C 30.2in /  1021.8hPa SSE 4.4mph /  7.1km/h 7mph /  11.3km/h 47.9% 0in /  0.0mm
15:09 66.4 °F /  19.1 °C 45.5 °F /  7.5 °C 30.2in /  1021.8hPa Sur 4.3mph /  6.9km/h 7mph /  11.3km/h 47% 0in /  0.0mm
15:14 66.6 °F /  19.2 °C 45.7 °F /  7.6 °C 30.2in /  1021.8hPa SO 3.9mph /  6.2km/h 6mph /  9.7km/h 46.8% 0in /  0.0mm
15:19 66.7 °F /  19.3 °C 45.3 °F /  7.4 °C 30.2in /  1021.8hPa SO 3.6mph /  5.8km/h 6mph /  9.7km/h 46.1% 0in /  0.0mm
15:24 66.9 °F /  19.4 °C 45.5 °F /  7.5 °C 30.2in /  1021.8hPa Sur 3.2mph /  5.1km/h 5.8mph /  9.3km/h 46% 0in /  0.0mm
15:29 67.1 °F /  19.5 °C 45.5 °F /  7.5 °C 30.2in /  1021.7hPa SE 2.9mph /  4.7km/h 6mph /  9.7km/h 46% 0in /  0.0mm
15:34 67.3 °F /  19.6 °C 45.9 °F /  7.7 °C 30.2in /  1021.7hPa SSE 2.6mph /  4.2km/h 5mph /  8km/h 46% 0in /  0.0mm
15:39 67.6 °F /  19.8 °C 45.9 °F /  7.7 °C 30.2in /  1021.7hPa Sur 2.4mph /  3.9km/h 5mph /  8km/h 45.6% 0in /  0.0mm
15:44 67.8 °F /  19.9 °C 45.1 °F /  7.3 °C 30.2in /  1021.6hPa SO 2.4mph /  3.9km/h 5.2mph /  8.4km/h 44.1% 0in /  0.0mm
15:49 68.2 °F /  20.1 °C 45.3 °F /  7.4 °C 30.2in /  1021.6hPa SO 2.4mph /  3.9km/h 5mph /  8km/h 44% 0in /  0.0mm
15:54 68.4 °F /  20.2 °C 45.3 °F /  7.4 °C 30.2in /  1021.6hPa SO 2mph /  3.2km/h 3mph /  4.8km/h 43.5% 0in /  0.0mm
15:59 68.9 °F /  20.5 °C 45.5 °F /  7.5 °C 30.2in /  1021.6hPa SSO 1.8mph /  2.9km/h 3.1mph /  5km/h 43.1% 0in /  0.0mm
16:04 69.3 °F /  20.7 °C 45.5 °F /  7.5 °C 30.2in /  1021.6hPa SSE 1.6mph /  2.5km/h 3.5mph /  5.6km/h 42.6% 0in /  0.0mm
16:09 69.4 °F /  20.8 °C 45.5 °F /  7.5 °C 30.2in /  1021.6hPa Sur 1.4mph /  2.2km/h 4.3mph /  6.9km/h 42.3% 0in /  0.0mm
16:14 69.4 °F /  20.8 °C 46 °F /  7.8 °C 30.2in /  1021.6hPa Sur 1.4mph /  2.2km/h 5mph /  8km/h 43% 0in /  0.0mm
16:19 69.4 °F /  20.8 °C 46 °F /  7.8 °C 30.2in /  1021.6hPa SSO 1.4mph /  2.2km/h 5mph /  8km/h 43% 0in /  0.0mm
16:24 69.4 °F /  20.8 °C 45.9 °F /  7.7 °C 30.2in /  1021.6hPa SO 1.8mph /  2.9km/h 3.5mph /  5.6km/h 42.8% 0in /  0.0mm
16:29 69.4 °F /  20.8 °C 45.7 °F /  7.6 °C 30.2in /  1021.6hPa SSE 2mph /  3.2km/h 3.5mph /  5.6km/h 42.5% 0in /  0.0mm
16:34 69.4 °F /  20.8 °C 45.5 °F /  7.5 °C 30.2in /  1021.6hPa SE 1.6mph /  2.6km/h 3.5mph /  5.6km/h 42.3% 0in /  0.0mm
16:39 69.4 °F /  20.8 °C 45.3 °F /  7.4 °C 30.2in /  1021.6hPa SSO 1.4mph /  2.2km/h 3.6mph /  5.8km/h 42.1% 0in /  0.0mm
16:44 69.6 °F /  20.9 °C 45.5 °F /  7.5 °C 30.2in /  1021.6hPa SO 1.4mph /  2.2km/h 4mph /  6.4km/h 42% 0in /  0.0mm
16:49 70 °F /  21.1 °C 45.7 °F /  7.6 °C 30.2in /  1021.6hPa SO 1.4mph /  2.2km/h 2mph /  3.2km/h 41.9% 0in /  0.0mm
16:54 70.2 °F /  21.2 °C 45.3 °F /  7.4 °C 30.2in /  1021.6hPa SO 0.5mph /  0.8km/h   41% 0in /  0.0mm
16:59 70.3 °F /  21.3 °C 45.5 °F /  7.5 °C 30.2in /  1021.6hPa Calm   3.1mph /  5km/h 41% 0in /  0.0mm
17:04 70.2 °F /  21.2 °C 45.7 °F /  7.6 °C 30.2in /  1021.6hPa Calm   4.6mph /  7.4km/h 41.3% 0in /  0.0mm
17:09 70.2 °F /  21.2 °C 45.9 °F /  7.7 °C 30.2in /  1021.6hPa Calm   5mph /  8km/h 42% 0in /  0.0mm
17:14 69.6 °F /  20.9 °C 45.7 °F /  7.6 °C 30.2in /  1021.6hPa OSO 1.2mph /  1.9km/h 5mph /  8km/h 42% 0in /  0.0mm
17:19 69.4 °F /  20.8 °C 45.9 °F /  7.7 °C 30.2in /  1021.6hPa SSO 2mph /  3.2km/h 4mph /  6.4km/h 42.8% 0in /  0.0mm
17:24 69.1 °F /  20.6 °C 45.7 °F /  7.6 °C 30.2in /  1021.6hPa SSO 2.2mph /  3.6km/h 4mph /  6.4km/h 43% 0in /  0.0mm
17:29 68.7 °F /  20.4 °C 45.3 °F /  7.4 °C 30.2in /  1021.6hPa SSE 2.4mph /  3.9km/h 4.6mph /  7.4km/h 43% 0in /  0.0mm
17:34 68.4 °F /  20.2 °C 45.3 °F /  7.4 °C 30.2in /  1021.6hPa SSE 2.7mph /  4.4km/h 5.9mph /  9.5km/h 43.5% 0in /  0.0mm
17:39 67.6 °F /  19.8 °C 45.1 °F /  7.3 °C 30.2in /  1021.6hPa SSE 2.9mph /  4.7km/h 6mph /  9.7km/h 44.1% 0in /  0.0mm
17:44 67.3 °F /  19.6 °C 45.5 °F /  7.5 °C 30.2in /  1021.6hPa SSE 3.5mph /  5.7km/h 6mph /  9.7km/h 45.6% 0in /  0.0mm
17:49 66.4 °F /  19.1 °C 45.7 °F /  7.6 °C 30.2in /  1021.6hPa SSE 4mph /  6.5km/h 6.2mph /  10km/h 47.2% 0in /  0.0mm
17:54 65.8 °F /  18.8 °C 45.5 °F /  7.5 °C 30.2in /  1021.8hPa Sur 4.2mph /  6.8km/h 6.2mph /  10km/h 47.9% 0in /  0.0mm
17:59 65.3 °F /  18.5 °C 45.5 °F /  7.5 °C 30.2in /  1021.8hPa Sur 4.3mph /  6.9km/h 6.2mph /  10km/h 48.9% 0in /  0.0mm
18:04 64.9 °F /  18.3 °C 45.7 °F /  7.6 °C 30.2in /  1021.8hPa Sur 4.1mph /  6.6km/h 6mph /  9.7km/h 49.8% 0in /  0.0mm
18:09 64.8 °F /  18.2 °C 45.9 °F /  7.7 °C 30.2in /  1021.9hPa SSE 4mph /  6.5km/h 5mph /  8km/h 50.4% 0in /  0.0mm
18:14 64.4 °F /  18 °C 45.9 °F /  7.7 °C 30.2in /  1021.9hPa SE 3.3mph /  5.3km/h 5mph /  8km/h 51.2% 0in /  0.0mm
18:19 64 °F /  17.8 °C 46.2 °F /  7.9 °C 30.2in /  1021.9hPa SE 2.9mph /  4.7km/h 5mph /  8km/h 52.1% 0in /  0.0mm
18:24 63.7 °F /  17.6 °C 46.2 °F /  7.9 °C 30.2in /  1022.0hPa ESE 2.9mph /  4.7km/h 5mph /  8km/h 53% 0in /  0.0mm
18:29 63.1 °F /  17.3 °C 46 °F /  7.8 °C 30.2in /  1022.0hPa SE 2.9mph /  4.7km/h 5mph /  8km/h 53.8% 0in /  0.0mm
18:34 62.6 °F /  17 °C 45.7 °F /  7.6 °C 30.2in /  1022.0hPa SE 2.9mph /  4.7km/h 5mph /  8km/h 54% 0in /  0.0mm
18:39 62.1 °F /  16.7 °C 45.7 °F /  7.6 °C 30.2in /  1022.1hPa SE 2.9mph /  4.7km/h 5.8mph /  9.3km/h 54.9% 0in /  0.0mm
18:44 61.7 °F /  16.5 °C 45.7 °F /  7.6 °C 30.2in /  1022.1hPa SE 3.3mph /  5.3km/h 6mph /  9.7km/h 55.8% 0in /  0.0mm
18:49 61.5 °F /  16.4 °C 45.9 °F /  7.7 °C 30.2in /  1022.1hPa SE 3.6mph /  5.8km/h 5.2mph /  8.4km/h 56.3% 0in /  0.0mm
18:54 61.3 °F /  16.3 °C 46 °F /  7.8 °C 30.2in /  1022.1hPa SE 3.3mph /  5.3km/h 5mph /  8km/h 57% 0in /  0.0mm
18:59 61.3 °F /  16.3 °C 46 °F /  7.8 °C 30.2in /  1022.1hPa SE 3.1mph /  5km/h 5mph /  8km/h 57% 0in /  0.0mm
19:04 61.2 °F /  16.2 °C 46 °F /  7.8 °C 30.2in /  1022.1hPa SE 2.2mph /  3.6km/h 3mph /  4.8km/h 57.4% 0in /  0.0mm
19:09 60.8 °F /  16 °C 46 °F /  7.8 °C 30.2in /  1022.3hPa Sur 1.8mph /  2.9km/h 3.5mph /  5.6km/h 58% 0in /  0.0mm
19:14 60.4 °F /  15.8 °C 46 °F /  7.8 °C 30.2in /  1022.3hPa SSO 1.6mph /  2.5km/h 3.5mph /  5.6km/h 58.8% 0in /  0.0mm
19:19 60.3 °F /  15.7 °C 46 °F /  7.8 °C 30.2in /  1022.3hPa SSO 1.4mph /  2.2km/h 3.5mph /  5.6km/h 59.5% 0in /  0.0mm
19:24 60.1 °F /  15.6 °C 46 °F /  7.8 °C 30.2in /  1022.4hPa SSO 1.6mph /  2.6km/h 3.1mph /  5km/h 60% 0in /  0.0mm
19:29 59.9 °F /  15.5 °C 46 °F /  7.8 °C 30.2in /  1022.4hPa SSO 1.8mph /  2.9km/h 3mph /  4.8km/h 60% 0in /  0.0mm
19:34 59.7 °F /  15.4 °C 46.2 °F /  7.9 °C 30.2in /  1022.4hPa SSO 0.7mph /  1.1km/h   60.8% 0in /  0.0mm
19:39 59.5 °F /  15.3 °C 46.2 °F /  7.9 °C 30.2in /  1022.4hPa Calm     61.1% 0in /  0.0mm
19:44 59.4 °F /  15.2 °C 46.4 °F /  8 °C 30.2in /  1022.4hPa Calm     62% 0in /  0.0mm
19:49 59.2 °F /  15.1 °C 46.2 °F /  7.9 °C 30.2in /  1022.4hPa Calm     62% 0in /  0.0mm
19:54 58.8 °F /  14.9 °C 46.2 °F /  7.9 °C 30.2in /  1022.6hPa Calm     62.8% 0in /  0.0mm
19:59 58.6 °F /  14.8 °C 46.4 °F /  8 °C 30.2in /  1022.6hPa Calm     63.5% 0in /  0.0mm
20:04 58.6 °F /  14.8 °C 46.4 °F /  8 °C 30.2in /  1022.6hPa Calm     64% 0in /  0.0mm
20:09 58.5 °F /  14.7 °C 46.6 °F /  8.1 °C 30.2in /  1022.6hPa Calm     64.7% 0in /  0.0mm
20:14 57.9 °F /  14.4 °C 46.4 °F /  8 °C 30.2in /  1022.6hPa Calm   3.6mph /  5.8km/h 65% 0in /  0.0mm
20:19 57.7 °F /  14.3 °C 46.6 °F /  8.1 °C 30.2in /  1022.6hPa Calm   4.7mph /  7.6km/h 66% 0in /  0.0mm
20:24 57.7 °F /  14.3 °C 46.6 °F /  8.1 °C 30.2in /  1022.7hPa SSO 1.8mph /  2.9km/h 5.9mph /  9.5km/h 66% 0in /  0.0mm
20:29 57.9 °F /  14.4 °C 46.6 °F /  8.1 °C 30.2in /  1022.7hPa Sur 2.9mph /  4.7km/h 6mph /  9.7km/h 66% 0in /  0.0mm
20:34 57.7 °F /  14.3 °C 46.6 °F /  8.1 °C 30.2in /  1022.7hPa Sur 3mph /  4.9km/h 6mph /  9.7km/h 66% 0in /  0.0mm
20:39 57.7 °F /  14.3 °C 46.8 °F /  8.2 °C 30.2in /  1022.8hPa Sur 3.1mph /  5km/h 4.6mph /  7.4km/h 66.5% 0in /  0.0mm
20:44 57.7 °F /  14.3 °C 46.9 °F /  8.3 °C 30.2in /  1022.8hPa Sur 3mph /  4.8km/h 5mph /  8km/h 67% 0in /  0.0mm
20:49 57.6 °F /  14.2 °C 46.8 °F /  8.2 °C 30.2in /  1022.8hPa Sur 2.9mph /  4.7km/h 5mph /  8km/h 67.4% 0in /  0.0mm
20:54 57 °F /  13.9 °C 46.6 °F /  8.1 °C 30.2in /  1022.8hPa Sur 3mph /  4.8km/h 5.2mph /  8.4km/h 68% 0in /  0.0mm
20:59 56.7 °F /  13.7 °C 46.6 °F /  8.1 °C 30.2in /  1022.8hPa SSE 3.1mph /  5km/h 5.8mph /  9.3km/h 68.9% 0in /  0.0mm
21:04 56.3 °F /  13.5 °C 46.4 °F /  8 °C 30.2in /  1022.8hPa SE 3.4mph /  5.5km/h 6.4mph /  10.3km/h 69.1% 0in /  0.0mm
21:09 55.8 °F /  13.2 °C 46.2 °F /  7.9 °C 30.2in /  1022.8hPa SSE 3.6mph /  5.8km/h 7.4mph /  11.9km/h 70.1% 0in /  0.0mm
21:14 55 °F /  12.8 °C 46 °F /  7.8 °C 30.2in /  1022.8hPa SSE 4mph /  6.5km/h 7mph /  11.3km/h 71.6% 0in /  0.0mm
21:19 54.3 °F /  12.4 °C 45.9 °F /  7.7 °C 30.2in /  1022.8hPa SSE 4.3mph /  6.9km/h 7mph /  11.3km/h 72.8% 0in /  0.0mm
21:24 53.8 °F /  12.1 °C 45.9 °F /  7.7 °C 30.2in /  1022.9hPa SSE 4.9mph /  7.9km/h 8.1mph /  13km/h 74.2% 0in /  0.0mm
21:29 53.4 °F /  11.9 °C 45.7 °F /  7.6 °C 30.2in /  1022.9hPa SSE 5.2mph /  8.4km/h 8mph /  12.9km/h 75% 0in /  0.0mm
21:34 53.2 °F /  11.8 °C 45.9 °F /  7.7 °C 30.2in /  1022.9hPa SSE 4.9mph /  7.9km/h 6mph /  9.7km/h 75.9% 0in /  0.0mm
21:39 53.1 °F /  11.7 °C 45.9 °F /  7.7 °C 30.2in /  1022.9hPa Sur 4.7mph /  7.6km/h 7.4mph /  11.9km/h 76.1% 0in /  0.0mm
21:44 53.2 °F /  11.8 °C 46 °F /  7.8 °C 30.2in /  1022.9hPa SSO 4.3mph /  6.9km/h 7mph /  11.3km/h 76.3% 0in /  0.0mm
21:49 53.8 °F /  12.1 °C 46.2 °F /  7.9 °C 30.2in /  1022.9hPa SO 4mph /  6.5km/h 6.9mph /  11.1km/h 75.7% 0in /  0.0mm
21:54 54.3 °F /  12.4 °C 46.4 °F /  8 °C 30.2in /  1022.9hPa SSO 4.4mph /  7.1km/h 8.1mph /  13km/h 74.5% 0in /  0.0mm
21:59 55 °F /  12.8 °C 46.6 °F /  8.1 °C 30.2in /  1022.8hPa SSO 4.7mph /  7.6km/h 9mph /  14.5km/h 73% 0in /  0.0mm
22:04 55.2 °F /  12.9 °C 46.2 °F /  7.9 °C 30.2in /  1022.8hPa SO 5.5mph /  8.9km/h 9mph /  14.5km/h 72% 0in /  0.0mm
22:09 55.2 °F /  12.9 °C 46 °F /  7.8 °C 30.2in /  1022.8hPa SSO 5.9mph /  9.5km/h 8.7mph /  14km/h 71.4% 0in /  0.0mm
22:14 55 °F /  12.8 °C 45.9 °F /  7.7 °C 30.2in /  1022.7hPa SSO 5.9mph /  9.5km/h 9.7mph /  15.6km/h 71% 0in /  0.0mm
22:19 54.9 °F /  12.7 °C 45.9 °F /  7.7 °C 30.2in /  1022.7hPa SSO 5.9mph /  9.5km/h 10mph /  16.1km/h 71.4% 0in /  0.0mm
22:24 54.7 °F /  12.6 °C 45.9 °F /  7.7 °C 30.2in /  1022.8hPa SSO 5.6mph /  9km/h 8mph /  12.9km/h 72% 0in /  0.0mm
22:29 54.7 °F /  12.6 °C 45.7 °F /  7.6 °C 30.2in /  1022.8hPa Sur 5.4mph /  8.7km/h 6mph /  9.7km/h 72% 0in /  0.0mm
22:34 54.3 °F /  12.4 °C 45.5 °F /  7.5 °C 30.2in /  1022.8hPa Sur 4mph /  6.4km/h 6mph /  9.7km/h 72.1% 0in /  0.0mm
22:39 54.1 °F /  12.3 °C 45.7 °F /  7.6 °C 30.2in /  1022.8hPa Sur 3.1mph /  5km/h 6.9mph /  11.1km/h 73% 0in /  0.0mm
22:44 54 °F /  12.2 °C 45.5 °F /  7.5 °C 30.2in /  1022.8hPa SSO 3.9mph /  6.2km/h 7mph /  11.3km/h 73% 0in /  0.0mm
22:49 54 °F /  12.2 °C 45.5 °F /  7.5 °C 30.2in /  1022.8hPa Sur 4.3mph /  6.9km/h 7mph /  11.3km/h 73% 0in /  0.0mm
22:54 53.8 °F /  12.1 °C 45.3 °F /  7.4 °C 30.2in /  1022.9hPa Sur 4.3mph /  6.9km/h 7mph /  11.3km/h 73% 0in /  0.0mm
22:59 53.4 °F /  11.9 °C 45.1 °F /  7.3 °C 30.2in /  1022.9hPa Sur 4.3mph /  6.9km/h 6mph /  9.7km/h 73.1% 0in /  0.0mm
23:04 53.4 °F /  11.9 °C 45.3 °F /  7.4 °C 30.2in /  1022.9hPa Sur 4.1mph /  6.6km/h 6.2mph /  10km/h 74% 0in /  0.0mm
23:09 53.2 °F /  11.8 °C 45.1 °F /  7.3 °C 30.2in /  1023.0hPa Sur 4mph /  6.5km/h 6mph /  9.7km/h 74% 0in /  0.0mm
23:14 53.1 °F /  11.7 °C 45 °F /  7.2 °C 30.2in /  1023.0hPa SSE 3.8mph /  6.1km/h 6.2mph /  10km/h 74% 0in /  0.0mm
23:19 52.7 °F /  11.5 °C 45 °F /  7.2 °C 30.2in /  1023.0hPa Sur 3.6mph /  5.8km/h 6.9mph /  11.1km/h 75% 0in /  0.0mm
23:24 52.5 °F /  11.4 °C 45 °F /  7.2 °C 30.2in /  1023.0hPa Sur 4mph /  6.5km/h 7mph /  11.3km/h 75.5% 0in /  0.0mm
23:29 52.5 °F /  11.4 °C 45.1 °F /  7.3 °C 30.2in /  1022.9hPa Sur 4.3mph /  6.9km/h 7.4mph /  11.9km/h 76% 0in /  0.0mm
23:34 52.5 °F /  11.4 °C 45.1 °F /  7.3 °C 30.2in /  1022.9hPa Sur 4.9mph /  7.9km/h 7.4mph /  11.9km/h 75.8% 0in /  0.0mm
23:39 52.3 °F /  11.3 °C 44.6 °F /  7 °C 30.2in /  1022.9hPa Sur 5.2mph /  8.4km/h 7.4mph /  11.9km/h 75% 0in /  0.0mm
23:44 52.3 °F /  11.3 °C 44.6 °F /  7 °C 30.2in /  1022.8hPa Sur 5.2mph /  8.4km/h 8.5mph /  13.7km/h 75% 0in /  0.0mm
23:49 52.2 °F /  11.2 °C 44.4 °F /  6.9 °C 30.2in /  1022.8hPa Sur 5.2mph /  8.4km/h 9mph /  14.5km/h 75% 0in /  0.0mm
23:54 52.2 °F /  11.2 °C 44.4 °F /  6.9 °C 30.2in /  1022.8hPa SSO 5.2mph /  8.4km/h 8.7mph /  14km/h 75% 0in /  0.0mm
23:59 52.2 °F /  11.2 °C 44.4 °F /  6.9 °C 30.2in /  1022.7hPa SSO 5.2mph /  8.4km/h 9.2mph /  14.8km/h 75% 0in /  0.0mm
Murcia-Puente Tocinos, España
Compliments of Weather Underground - 2.75 mb

La estación de MeteoMurcia.com, publica sus datos en los siguientes proyectos:

Weather Underground PWS IMURCIAP2 Meteoclimatic www.awekas.at

W3Counter
Web Analytics